createdAt,value
2018-10-17T00:02:30.185Z,19.27
2018-10-17T00:05:04.735Z,20.77
2018-10-17T00:07:39.090Z,21.77
2018-10-17T00:10:12.701Z,21.03
2018-10-17T00:12:46.400Z,20.17
2018-10-17T00:15:19.839Z,20.17
2018-10-17T00:17:53.492Z,20.20
2018-10-17T00:20:28.157Z,21.23
2018-10-17T00:23:01.635Z,20.60
2018-10-17T00:25:35.314Z,20.13
2018-10-17T00:28:09.151Z,19.63
2018-10-17T00:30:42.738Z,18.67
2018-10-17T00:33:16.595Z,19.20
2018-10-17T00:35:50.018Z,17.90
2018-10-17T00:38:23.737Z,18.93
2018-10-17T00:40:57.297Z,19.47
2018-10-17T00:43:30.839Z,18.43
2018-10-17T00:46:05.399Z,18.73
2018-10-17T00:48:39.569Z,18.60
2018-10-17T00:51:13.372Z,18.80
2018-10-17T00:53:47.831Z,19.30
2018-10-17T00:56:21.350Z,19.10
2018-10-17T00:59:12.130Z,19.40
2018-10-17T01:01:51.992Z,18.43
2018-10-17T01:04:25.539Z,20.30
2018-10-17T01:06:59.232Z,19.17
2018-10-17T01:09:32.963Z,19.00
2018-10-17T01:12:12.827Z,19.80
2018-10-17T01:14:46.454Z,19.60
2018-10-17T01:17:19.980Z,19.43
2018-10-17T01:19:53.487Z,19.80
2018-10-17T01:22:27.053Z,21.40
2018-10-17T01:25:01.632Z,20.10
2018-10-17T01:27:35.116Z,19.30
2018-10-17T01:30:12.907Z,20.87
2018-10-17T01:32:46.368Z,21.33
2018-10-17T01:35:19.980Z,21.13
2018-10-17T01:37:53.589Z,20.77
2018-10-17T01:40:27.118Z,21.67
2018-10-17T01:43:01.334Z,22.17
2018-10-17T01:45:34.670Z,20.57
2018-10-17T01:48:08.138Z,22.03
2018-10-17T01:50:41.555Z,23.33
2018-10-17T01:53:15.115Z,22.13
2018-10-17T01:55:48.727Z,22.03
2018-10-17T01:58:22.145Z,21.33
2018-10-17T02:00:55.893Z,23.80
2018-10-17T02:03:29.385Z,22.07
2018-10-17T02:06:03.023Z,23.50
2018-10-17T02:08:36.694Z,20.93
2018-10-17T02:11:16.773Z,23.27
2018-10-17T02:13:50.338Z,23.17
2018-10-17T02:16:23.860Z,24.93
2018-10-17T02:18:57.317Z,23.83
2018-10-17T02:21:30.997Z,24.20
2018-10-17T02:24:05.445Z,24.70
2018-10-17T02:26:39.999Z,24.93
2018-10-17T02:29:13.497Z,24.60
2018-10-17T02:31:46.850Z,23.67
2018-10-17T02:34:20.434Z,24.20
2018-10-17T02:36:58.109Z,23.23
2018-10-17T02:39:32.574Z,23.83
2018-10-17T02:42:06.183Z,25.30
2018-10-17T02:44:39.702Z,24.97
2018-10-17T02:47:13.317Z,25.03
2018-10-17T02:49:53.050Z,24.27
2018-10-17T02:52:26.604Z,24.20
2018-10-17T02:55:00.161Z,25.33
2018-10-17T02:57:33.671Z,23.97
2018-10-17T03:00:08.598Z,24.60
2018-10-17T03:02:42.058Z,24.50
2018-10-17T03:05:15.788Z,24.63
2018-10-17T03:07:49.192Z,24.90
2018-10-17T03:10:22.710Z,24.70
2018-10-17T03:12:56.159Z,24.17
2018-10-17T03:15:29.649Z,24.50
2018-10-17T03:18:03.190Z,25.70
2018-10-17T03:20:36.802Z,24.33
2018-10-17T03:23:10.216Z,25.23
2018-10-17T03:25:43.808Z,24.17
2018-10-17T03:28:17.354Z,25.33
2018-10-17T03:30:50.955Z,23.43
2018-10-17T03:33:24.508Z,24.30
2018-10-17T03:35:58.240Z,24.63
2018-10-17T03:38:31.701Z,24.97
2018-10-17T03:41:05.552Z,24.53
2018-10-17T03:43:39.191Z,24.33
2018-10-17T03:46:13.093Z,24.13
2018-10-17T03:48:46.847Z,23.40
2018-10-17T03:51:27.150Z,25.13
2018-10-17T03:54:00.547Z,26.03
2018-10-17T03:56:34.214Z,25.97
2018-10-17T03:59:07.800Z,24.00
2018-10-17T04:01:41.263Z,25.33
2018-10-17T04:04:14.848Z,26.87
2018-10-17T04:06:48.520Z,26.17
2018-10-17T04:09:22.958Z,25.67
2018-10-17T04:11:56.580Z,25.47
2018-10-17T04:14:30.116Z,27.30
2018-10-17T04:17:03.644Z,26.17
2018-10-17T04:19:37.053Z,26.27
2018-10-17T04:22:17.002Z,28.77
2018-10-17T04:24:50.588Z,26.37
2018-10-17T04:27:24.036Z,27.37
2018-10-17T04:29:57.656Z,26.97
2018-10-17T04:32:31.102Z,27.03
2018-10-17T04:35:04.847Z,28.50
2018-10-17T04:37:44.597Z,26.77
2018-10-17T04:40:18.213Z,26.57
2018-10-17T04:42:57.924Z,26.50
2018-10-17T04:45:31.435Z,28.67
2018-10-17T04:48:05.333Z,27.83
2018-10-17T04:50:38.927Z,26.73
2018-10-17T04:53:18.769Z,28.07
2018-10-17T04:55:52.348Z,27.33
2018-10-17T04:58:25.977Z,28.30
2018-10-17T05:01:05.707Z,27.87
2018-10-17T05:03:39.024Z,28.33
2018-10-17T05:06:12.483Z,28.00
2018-10-17T05:08:45.967Z,26.40
2018-10-17T05:11:19.518Z,27.30
2018-10-17T05:13:53.502Z,27.37
2018-10-17T05:16:33.461Z,27.63
2018-10-17T05:19:13.607Z,27.70
2018-10-17T05:21:47.126Z,27.13
2018-10-17T05:24:21.616Z,26.40
2018-10-17T05:26:55.252Z,26.67
2018-10-17T05:29:28.744Z,27.70
2018-10-17T05:32:02.230Z,28.23
2018-10-17T05:34:42.160Z,26.77
2018-10-17T05:37:15.976Z,26.40
2018-10-17T05:39:49.250Z,27.17
2018-10-17T05:42:29.590Z,27.63
2018-10-17T05:45:03.317Z,26.27
2018-10-17T05:47:37.989Z,29.00
2018-10-17T05:50:12.469Z,26.83
2018-10-17T05:52:45.957Z,28.40
2018-10-17T05:55:19.767Z,28.27
2018-10-17T05:57:53.661Z,27.33
2018-10-17T06:00:33.561Z,28.10
2018-10-17T06:03:08.248Z,29.10
2018-10-17T06:05:41.786Z,28.33
2018-10-17T06:08:16.529Z,28.33
2018-10-17T06:10:49.976Z,27.47
2018-10-17T06:13:23.517Z,28.60
2018-10-17T06:15:58.121Z,26.77
2018-10-17T06:18:31.537Z,27.50
2018-10-17T06:21:05.537Z,27.43
2018-10-17T06:23:39.180Z,26.27
2018-10-17T06:26:12.689Z,26.03
2018-10-17T06:28:52.403Z,26.50
2018-10-17T06:31:25.947Z,26.67
2018-10-17T06:33:59.452Z,25.53
2018-10-17T06:36:33.105Z,26.63
2018-10-17T06:39:08.001Z,26.40
2018-10-17T06:41:41.370Z,25.20
2018-10-17T06:44:14.849Z,26.17
2018-10-17T06:46:48.235Z,26.20
2018-10-17T06:49:22.046Z,26.73
2018-10-17T06:51:55.700Z,27.43
2018-10-17T06:54:30.425Z,27.10
2018-10-17T06:57:04.179Z,26.13
2018-10-17T06:59:38.761Z,28.60
2018-10-17T07:02:12.311Z,26.80
2018-10-17T07:04:45.905Z,26.10
2018-10-17T07:07:19.718Z,26.63
2018-10-17T07:09:53.140Z,26.40
2018-10-17T07:12:26.783Z,27.17
2018-10-17T07:15:00.356Z,26.63
2018-10-17T07:17:34.340Z,26.57
2018-10-17T07:20:14.139Z,25.23
2018-10-17T07:22:47.626Z,25.70
2018-10-17T07:25:21.198Z,26.70
2018-10-17T07:27:54.704Z,26.97
2018-10-17T07:30:28.181Z,26.43
2018-10-17T07:33:01.904Z,26.80
2018-10-17T07:35:41.810Z,27.00
2018-10-17T07:38:16.502Z,26.40
2018-10-17T07:40:51.560Z,26.40
2018-10-17T07:43:26.125Z,26.67
2018-10-17T07:45:59.765Z,27.40
2018-10-17T07:48:33.536Z,25.93
2018-10-17T07:51:13.363Z,26.80
2018-10-17T07:53:47.845Z,26.83
2018-10-17T07:56:21.398Z,26.03
2018-10-17T07:59:01.353Z,26.87
2018-10-17T08:01:41.282Z,25.07
2018-10-17T08:04:14.897Z,27.23
2018-10-17T08:06:49.404Z,25.60
2018-10-17T08:09:22.915Z,25.73
2018-10-17T08:11:56.427Z,25.50
2018-10-17T08:14:31.023Z,26.40
2018-10-17T08:17:11.733Z,27.17
2018-10-17T08:19:45.369Z,26.80
2018-10-17T08:22:20.059Z,28.03
2018-10-17T08:24:53.465Z,27.40
2018-10-17T08:27:27.056Z,26.77
2018-10-17T08:30:00.530Z,27.23
2018-10-17T08:32:34.061Z,26.30
2018-10-17T08:35:08.013Z,26.47
2018-10-17T08:37:41.762Z,26.77
2018-10-17T08:40:15.132Z,26.83
2018-10-17T08:42:54.984Z,26.17
2018-10-17T08:45:34.785Z,27.47
2018-10-17T08:48:08.346Z,26.87
2018-10-17T08:50:41.818Z,25.60
2018-10-17T08:53:15.294Z,25.03
2018-10-17T08:55:55.348Z,24.77
2018-10-17T08:58:30.866Z,25.20
2018-10-17T09:01:04.698Z,23.57
2018-10-17T09:03:38.145Z,22.27
2018-10-17T09:06:12.770Z,23.07
2018-10-17T09:08:46.163Z,23.03
2018-10-17T09:11:26.190Z,22.03
2018-10-17T09:13:59.690Z,22.97
2018-10-17T09:16:35.314Z,23.40
2018-10-17T09:19:10.091Z,23.07
2018-10-17T09:21:50.413Z,22.60
2018-10-17T09:24:23.653Z,23.43
2018-10-17T09:26:57.165Z,23.73
2018-10-17T09:29:30.762Z,22.73
2018-10-17T09:32:04.597Z,22.00
2018-10-17T09:34:39.114Z,23.83
2018-10-17T09:37:12.595Z,23.57
2018-10-17T09:39:46.153Z,23.20
2018-10-17T09:42:19.755Z,25.07
2018-10-17T09:44:53.352Z,24.17
2018-10-17T09:47:27.705Z,23.93
2018-10-17T09:50:08.509Z,22.73
2018-10-17T09:52:48.706Z,24.20
2018-10-17T09:55:22.202Z,26.37
2018-10-17T09:57:55.758Z,25.23
2018-10-17T10:01:36.698Z,27.00
2018-10-17T10:04:10.207Z,27.07
2018-10-17T10:06:43.729Z,27.73
2018-10-17T10:09:17.094Z,26.75
2018-10-17T10:11:50.667Z,26.90
2018-10-17T10:14:30.594Z,27.77
2018-10-17T10:17:10.637Z,28.65
2018-10-17T10:19:44.238Z,28.77
2018-10-17T10:22:17.919Z,28.62
2018-10-17T10:24:51.574Z,29.30
2018-10-17T10:27:25.257Z,31.12
2018-10-17T10:29:58.880Z,29.02
2018-10-17T10:32:32.463Z,30.60
2018-10-17T10:35:06.141Z,29.33
2018-10-17T10:37:39.697Z,29.90
2018-10-17T10:40:13.467Z,31.33
2018-10-17T10:42:53.504Z,29.05
2018-10-17T10:45:28.050Z,30.32
2018-10-17T10:48:04.842Z,30.52
2018-10-17T10:50:38.294Z,32.15
2018-10-17T10:53:11.963Z,31.70
2018-10-17T10:55:45.633Z,31.85
2018-10-17T10:58:19.345Z,29.90
2018-10-17T11:00:52.687Z,31.23
2018-10-17T11:03:32.547Z,31.15
2018-10-17T11:06:12.485Z,32.85
2018-10-17T11:08:52.664Z,33.65
2018-10-17T11:11:26.277Z,32.53
2018-10-17T11:13:59.762Z,31.48
2018-10-17T11:16:39.681Z,33.25
2018-10-17T11:19:19.622Z,33.33
2018-10-17T11:21:59.559Z,31.73
2018-10-17T11:24:39.434Z,31.65
2018-10-17T11:27:13.029Z,32.63
2018-10-17T11:29:52.879Z,31.05
2018-10-17T11:32:32.788Z,31.97
2018-10-17T11:35:07.858Z,31.40
2018-10-17T11:37:41.398Z,32.98
2018-10-17T11:40:15.164Z,32.95
2018-10-17T11:42:49.681Z,33.55
2018-10-17T11:45:23.306Z,32.45
2018-10-17T11:47:56.821Z,33.40
2018-10-17T11:50:30.433Z,32.45
2018-10-17T11:53:10.518Z,32.45
2018-10-17T11:55:43.901Z,32.85
2018-10-17T11:58:17.317Z,31.62
2018-10-17T12:00:51.781Z,32.55
2018-10-17T12:03:31.810Z,33.98
2018-10-17T12:06:05.450Z,32.75
2018-10-17T12:08:45.236Z,32.05
2018-10-17T12:11:25.398Z,32.08
2018-10-17T12:13:58.978Z,34.35
2018-10-17T12:16:32.617Z,32.13
2018-10-17T12:19:06.149Z,34.58
2018-10-17T12:21:39.884Z,33.18
2018-10-17T12:24:13.160Z,34.78
2018-10-17T12:26:53.139Z,34.67
2018-10-17T12:29:33.032Z,35.28
2018-10-17T12:32:06.623Z,35.60
2018-10-17T12:34:40.131Z,35.00
2018-10-17T12:37:20.147Z,35.73
2018-10-17T12:39:53.690Z,37.33
2018-10-17T12:42:27.061Z,33.90
2018-10-17T12:45:07.163Z,35.43
2018-10-17T12:47:46.950Z,34.03
2018-10-17T12:50:22.268Z,36.38
2018-10-17T12:52:55.922Z,35.25
2018-10-17T12:55:35.882Z,35.17
2018-10-17T12:58:09.462Z,34.53
2018-10-17T13:00:43.068Z,35.05
2018-10-17T13:03:16.669Z,33.15
2018-10-17T13:05:50.300Z,36.88
2018-10-17T13:08:30.294Z,37.25
2018-10-17T13:11:04.071Z,36.17
2018-10-17T13:13:43.992Z,34.27
2018-10-17T13:16:17.488Z,34.33
2018-10-17T13:18:51.045Z,34.83
2018-10-17T13:21:24.423Z,36.55
2018-10-17T13:24:04.787Z,36.93
2018-10-17T13:26:44.910Z,35.48
2018-10-17T13:29:18.622Z,34.65
2018-10-17T13:31:52.032Z,35.43
2018-10-17T13:34:32.197Z,34.90
2018-10-17T13:37:07.245Z,36.13
2018-10-17T13:39:47.102Z,32.20
2018-10-17T13:42:27.513Z,32.63
2018-10-17T13:45:02.014Z,33.15
2018-10-17T13:47:35.556Z,35.10
2018-10-17T13:50:15.511Z,32.25
2018-10-17T13:52:49.035Z,32.75
2018-10-17T13:55:22.703Z,32.50
2018-10-17T13:58:02.655Z,31.90
2018-10-17T14:00:36.121Z,31.57
2018-10-17T14:03:10.492Z,30.02
2018-10-17T14:05:44.146Z,30.80
2018-10-17T14:08:17.561Z,30.85
2018-10-17T14:10:51.264Z,30.57
2018-10-17T14:13:31.035Z,30.80
2018-10-17T14:16:10.901Z,31.68
2018-10-17T14:18:44.282Z,29.87
2018-10-17T14:21:24.345Z,29.90
2018-10-17T14:23:57.974Z,30.92
2018-10-17T14:26:31.433Z,29.90
2018-10-17T14:29:04.986Z,31.02
2018-10-17T14:31:38.724Z,29.52
2018-10-17T14:34:12.217Z,30.05
2018-10-17T14:36:52.249Z,31.42
2018-10-17T14:39:25.796Z,30.52
2018-10-17T14:41:59.346Z,32.38
2018-10-17T14:44:37.151Z,31.42
2018-10-17T14:47:17.111Z,30.82
2018-10-17T14:49:50.518Z,31.15
2018-10-17T14:52:25.054Z,31.15
2018-10-17T14:54:59.550Z,30.32
2018-10-17T14:57:33.164Z,30.65
2018-10-17T15:00:09.141Z,30.32
2018-10-17T15:02:43.409Z,30.52
2018-10-17T15:05:23.169Z,31.50
2018-10-17T15:07:56.607Z,31.42
2018-10-17T15:10:30.303Z,30.17
2018-10-17T15:13:03.938Z,31.57
2018-10-17T15:15:44.976Z,31.45
2018-10-17T15:18:18.401Z,29.12
2018-10-17T15:20:52.198Z,29.15
2018-10-17T15:23:26.650Z,29.77
2018-10-17T15:26:00.073Z,28.38
2018-10-17T15:28:39.955Z,27.55
2018-10-17T15:31:19.994Z,28.80
2018-10-17T15:33:53.478Z,28.45
2018-10-17T15:36:33.163Z,26.97
2018-10-17T15:39:10.692Z,27.67
2018-10-17T15:41:50.462Z,27.32
2018-10-17T15:44:24.101Z,26.90
2018-10-17T15:46:58.008Z,25.97
2018-10-17T15:49:31.592Z,27.93
2018-10-17T15:52:05.053Z,25.50
2018-10-17T15:54:44.899Z,26.65
2018-10-17T15:57:24.922Z,26.42
2018-10-17T15:59:59.580Z,25.30
2018-10-17T16:02:39.753Z,24.35
2018-10-17T16:05:19.464Z,23.85
2018-10-17T16:07:59.072Z,27.15
2018-10-17T16:10:38.856Z,26.30
2018-10-17T16:13:18.907Z,25.52
2018-10-17T16:15:58.693Z,23.10
2018-10-17T16:18:32.312Z,22.98
2018-10-17T16:21:06.063Z,23.65
2018-10-17T16:23:39.796Z,24.92
2018-10-17T16:26:13.244Z,23.67
2018-10-17T16:28:46.681Z,24.32
2018-10-17T16:31:26.508Z,25.02
2018-10-17T16:34:00.109Z,24.20
2018-10-17T16:36:33.749Z,23.38
2018-10-17T16:39:09.062Z,23.83
2018-10-17T16:41:42.482Z,24.07
2018-10-17T16:44:17.034Z,23.42
2018-10-17T16:46:50.486Z,23.10
2018-10-17T16:49:24.143Z,23.02
2018-10-17T16:52:03.867Z,23.32
2018-10-17T16:54:37.458Z,24.23
2018-10-17T16:57:11.854Z,23.70
2018-10-17T16:59:45.366Z,23.50
2018-10-17T17:02:19.846Z,23.07
2018-10-17T17:04:59.731Z,23.12
2018-10-17T17:07:34.177Z,22.77
2018-10-17T17:10:08.624Z,23.23
2018-10-17T17:12:42.355Z,21.03
2018-10-17T17:15:22.253Z,22.00
2018-10-17T17:18:02.263Z,21.80
2018-10-17T17:20:42.126Z,23.13
2018-10-17T17:23:15.641Z,22.07
2018-10-17T17:25:49.074Z,21.40
2018-10-17T17:28:23.603Z,21.43
2018-10-17T17:30:57.162Z,21.87
2018-10-17T17:33:31.654Z,21.57
2018-10-17T17:36:11.694Z,20.07
2018-10-17T17:38:51.561Z,20.62
2018-10-17T17:41:25.435Z,20.50
2018-10-17T17:43:58.860Z,20.83
2018-10-17T17:46:33.481Z,18.80
2018-10-17T17:49:13.542Z,17.57
2018-10-17T17:51:46.978Z,16.80
2018-10-17T17:54:20.383Z,17.23
2018-10-17T17:56:53.847Z,16.53
2018-10-17T17:59:28.324Z,17.77
2018-10-17T18:02:01.934Z,15.77
2018-10-17T18:04:35.473Z,15.43
2018-10-17T18:07:09.259Z,16.63
2018-10-17T18:09:42.927Z,18.93
2018-10-17T18:12:16.512Z,18.00
2018-10-17T18:14:50.061Z,18.70
2018-10-17T18:17:23.630Z,19.07
2018-10-17T18:19:57.437Z,18.70
2018-10-17T18:22:31.077Z,17.90
2018-10-17T18:25:05.673Z,18.00
2018-10-17T18:27:40.513Z,16.63
2018-10-17T18:30:20.328Z,16.77
2018-10-17T18:32:54.553Z,14.97
2018-10-17T18:35:28.211Z,15.37
2018-10-17T18:38:08.290Z,15.30
2018-10-17T18:40:42.764Z,14.27
2018-10-17T18:43:17.312Z,13.50
2018-10-17T18:45:57.163Z,12.77
2018-10-17T18:48:30.837Z,13.30
2018-10-17T18:51:10.856Z,12.05
2018-10-17T18:53:44.399Z,13.10
2018-10-17T18:56:24.302Z,12.47
2018-10-17T18:59:04.258Z,12.67
2018-10-17T19:01:38.114Z,12.87
2018-10-17T19:04:11.753Z,12.47
2018-10-17T19:06:45.329Z,13.07
2018-10-17T19:09:19.081Z,12.90
2018-10-17T19:11:52.836Z,12.87
2018-10-17T19:14:26.362Z,12.33
2018-10-17T19:16:59.813Z,12.60
2018-10-17T19:19:33.329Z,11.70
2018-10-17T19:22:06.875Z,13.27
2018-10-17T19:24:47.029Z,13.20
2018-10-17T19:27:26.693Z,12.80
2018-10-17T19:30:00.268Z,13.60
2018-10-17T19:32:33.797Z,12.83
2018-10-17T19:35:08.476Z,13.03
2018-10-17T19:37:48.265Z,13.53
2018-10-17T19:40:22.008Z,13.80
2018-10-17T19:42:55.675Z,13.10
2018-10-17T19:45:29.144Z,13.27
2018-10-17T19:48:02.727Z,14.13
2018-10-17T19:50:36.322Z,12.80
2018-10-17T19:53:09.987Z,14.97
2018-10-17T19:55:43.669Z,13.57
2018-10-17T19:58:17.114Z,14.50
2018-10-17T20:00:50.954Z,13.27
2018-10-17T20:03:24.464Z,13.40
2018-10-17T20:05:57.984Z,12.53
2018-10-17T20:08:31.554Z,12.83
2018-10-17T20:11:11.637Z,13.60
2018-10-17T20:13:45.437Z,13.60
2018-10-17T20:16:19.039Z,14.57
2018-10-17T20:18:52.631Z,13.70
2018-10-17T20:21:32.575Z,14.43
2018-10-17T20:24:05.977Z,14.20
2018-10-17T20:26:39.570Z,13.67
2018-10-17T20:29:13.075Z,14.57
2018-10-17T20:31:46.610Z,13.33
2018-10-17T20:34:20.039Z,13.60
2018-10-17T20:36:53.585Z,14.13
2018-10-17T20:39:26.986Z,13.27
2018-10-17T20:42:00.592Z,14.37
2018-10-17T20:44:34.185Z,13.57
2018-10-17T20:47:07.838Z,14.40
2018-10-17T20:49:42.301Z,14.23
2018-10-17T20:52:15.845Z,14.00
2018-10-17T20:54:49.275Z,13.93
2018-10-17T20:57:22.793Z,13.87
2018-10-17T20:59:56.383Z,14.40
2018-10-17T21:02:29.920Z,15.13
2018-10-17T21:05:04.810Z,13.93
2018-10-17T21:07:38.221Z,15.63
2018-10-17T21:10:18.170Z,15.23
2018-10-17T21:12:51.805Z,13.83
2018-10-17T21:15:25.422Z,14.43
2018-10-17T21:18:05.324Z,14.97
2018-10-17T21:20:39.766Z,14.37
2018-10-17T21:23:13.581Z,15.00
2018-10-17T21:25:47.001Z,13.73
2018-10-17T21:28:21.416Z,16.00
2018-10-17T21:30:56.142Z,14.83
2018-10-17T21:33:29.772Z,14.20
2018-10-17T21:36:09.694Z,14.33
2018-10-17T21:38:43.298Z,14.00
2018-10-17T21:41:23.129Z,13.47
2018-10-17T21:43:57.551Z,14.17
2018-10-17T21:46:36.253Z,14.13
2018-10-17T21:49:10.233Z,14.03
2018-10-17T21:51:43.754Z,13.97
2018-10-17T21:54:18.184Z,15.53
2018-10-17T21:56:57.739Z,16.03
2018-10-17T21:59:31.390Z,15.17
2018-10-17T22:02:05.197Z,14.90
2018-10-17T22:04:39.549Z,15.63
2018-10-17T22:07:13.094Z,14.40
2018-10-17T22:09:53.182Z,14.50
2018-10-17T22:12:26.735Z,13.63
2018-10-17T22:15:00.349Z,14.57
2018-10-17T22:17:34.709Z,12.83
2018-10-17T22:20:08.243Z,14.07
2018-10-17T22:22:41.730Z,14.43
2018-10-17T22:25:15.395Z,15.20
2018-10-17T22:27:48.805Z,15.83
2018-10-17T22:30:22.186Z,15.30
2018-10-17T22:32:55.800Z,15.07
2018-10-17T22:35:35.472Z,15.50
2018-10-17T22:38:09.090Z,17.50
2018-10-17T22:40:42.593Z,16.33
2018-10-17T22:43:16.096Z,16.77
2018-10-17T22:45:50.470Z,16.30
2018-10-17T22:48:24.057Z,16.03
2018-10-17T22:50:57.548Z,16.17
2018-10-17T22:53:31.105Z,15.23
2018-10-17T22:56:04.750Z,15.73
2018-10-17T22:58:38.116Z,16.53
2018-10-17T23:01:11.774Z,17.73
2018-10-17T23:03:51.733Z,17.17
2018-10-17T23:06:25.272Z,17.40
2018-10-17T23:08:58.809Z,16.53
2018-10-17T23:11:32.297Z,17.60
2018-10-17T23:14:07.346Z,17.10
2018-10-17T23:16:47.328Z,17.50
2018-10-17T23:19:20.785Z,15.87
2018-10-17T23:21:54.299Z,15.87
2018-10-17T23:24:27.770Z,15.97
2018-10-17T23:27:01.269Z,14.77
2018-10-17T23:29:34.959Z,14.67
2018-10-17T23:32:08.526Z,15.30
2018-10-17T23:34:46.084Z,14.03
2018-10-17T23:37:19.485Z,14.47
2018-10-17T23:39:53.709Z,13.50
2018-10-17T23:42:27.292Z,14.40
2018-10-17T23:45:00.760Z,13.17
2018-10-17T23:47:34.528Z,13.93
2018-10-17T23:50:09.033Z,13.27
2018-10-17T23:52:42.436Z,14.20
2018-10-17T23:55:15.981Z,11.93
2018-10-17T23:57:50.394Z,12.97
